createdAt,value
2022-09-28T00:04:40.288Z,12.40
2022-09-28T00:09:45.864Z,12.40
2022-09-28T00:14:51.315Z,12.39
2022-09-28T00:19:58.204Z,12.34
2022-09-28T00:25:03.617Z,12.33
2022-09-28T00:30:10.138Z,12.31
2022-09-28T00:35:17.457Z,12.27
2022-09-28T00:40:26.694Z,12.24
2022-09-28T00:45:33.542Z,12.22
2022-09-28T00:50:41.080Z,12.18
2022-09-28T00:56:03.721Z,12.16
2022-09-28T01:01:09.522Z,12.16
2022-09-28T01:06:18.470Z,12.14
2022-09-28T01:11:24.838Z,12.12
2022-09-28T01:16:48.865Z,12.08
2022-09-28T01:22:07.589Z,12.08
2022-09-28T01:27:31.220Z,12.04
2022-09-28T01:32:39.652Z,12.02
2022-09-28T01:38:08.208Z,11.98
2022-09-28T01:43:20.645Z,11.97
2022-09-28T01:48:29.243Z,11.95
2022-09-28T01:53:43.676Z,11.97
2022-09-28T01:58:59.663Z,11.95
2022-09-28T02:04:10.877Z,11.97
2022-09-28T02:09:20.083Z,11.99
2022-09-28T02:14:27.434Z,11.96
2022-09-28T02:19:34.246Z,11.94
2022-09-28T02:24:45.693Z,11.92
2022-09-28T02:29:52.777Z,11.93
2022-09-28T02:34:59.349Z,11.90
2022-09-28T02:40:06.483Z,11.86
2022-09-28T02:45:34.786Z,11.86
2022-09-28T02:51:04.545Z,11.79
2022-09-28T02:56:12.965Z,11.71
2022-09-28T03:01:27.052Z,11.66
2022-09-28T03:06:44.650Z,11.63
2022-09-28T03:11:59.355Z,11.62
2022-09-28T03:17:05.088Z,11.61
2022-09-28T03:22:10.828Z,11.58
2022-09-28T03:27:16.540Z,11.55
2022-09-28T03:32:21.995Z,11.50
2022-09-28T03:37:29.183Z,11.40
2022-09-28T03:42:38.013Z,11.47
2022-09-28T03:47:47.771Z,11.44
2022-09-28T03:52:53.146Z,11.43
2022-09-28T03:57:58.677Z,11.40
2022-09-28T04:03:04.311Z,11.46
2022-09-28T04:08:09.910Z,11.52
2022-09-28T04:13:17.248Z,11.54
2022-09-28T04:18:25.247Z,11.53
2022-09-28T04:23:49.443Z,11.58
2022-09-28T04:29:12.824Z,11.56
2022-09-28T04:34:22.132Z,11.65
2022-09-28T04:39:27.858Z,11.62
2022-09-28T04:44:34.454Z,11.71
2022-09-28T04:49:41.592Z,11.78
2022-09-28T04:54:48.909Z,11.71
2022-09-28T04:59:54.552Z,11.76
2022-09-28T05:05:01.051Z,11.72
2022-09-28T05:10:14.067Z,11.75
2022-09-28T05:15:19.708Z,11.78
2022-09-28T05:20:26.178Z,11.75
2022-09-28T05:25:31.919Z,11.74
2022-09-28T05:30:41.903Z,11.71
2022-09-28T05:36:04.941Z,11.67
2022-09-28T05:41:10.586Z,11.61
2022-09-28T05:46:18.591Z,11.62
2022-09-28T05:51:25.649Z,11.60
2022-09-28T05:56:34.246Z,11.59
2022-09-28T06:01:41.368Z,11.65
2022-09-28T06:06:48.366Z,11.66
2022-09-28T06:11:54.684Z,11.63
2022-09-28T06:17:04.713Z,11.64
2022-09-28T06:22:10.679Z,11.72
2022-09-28T06:27:17.757Z,11.72
2022-09-28T06:32:23.267Z,11.73
2022-09-28T06:37:29.719Z,11.72
2022-09-28T06:42:35.853Z,11.75
2022-09-28T06:48:00.169Z,11.66
2022-09-28T06:53:13.636Z,11.63
2022-09-28T06:58:30.862Z,11.60
2022-09-28T07:03:37.375Z,11.61
2022-09-28T07:09:15.422Z,11.74
2022-09-28T07:14:40.953Z,11.78
2022-09-28T07:19:28.840Z,11.84
2022-09-28T07:24:34.307Z,11.97
2022-09-28T07:29:59.033Z,11.99
2022-09-28T07:35:21.219Z,12.10
2022-09-28T07:40:50.379Z,12.31
2022-09-28T07:45:56.439Z,12.72
2022-09-28T07:51:03.901Z,12.79
2022-09-28T07:56:15.354Z,12.76
2022-09-28T08:01:22.493Z,12.89
2022-09-28T08:06:30.683Z,13.16
2022-09-28T08:11:36.329Z,13.39
2022-09-28T08:16:46.079Z,13.41
2022-09-28T08:21:53.890Z,13.43
2022-09-28T08:27:00.620Z,13.50
2022-09-28T08:32:09.280Z,13.69
2022-09-28T08:37:16.362Z,14.69
2022-09-28T08:42:38.611Z,14.07
2022-09-28T08:48:31.038Z,13.95
2022-09-28T08:53:41.204Z,14.10
2022-09-28T08:58:51.941Z,14.12
2022-09-28T09:03:58.508Z,14.35
2022-09-28T09:09:26.400Z,14.48
2022-09-28T09:14:34.959Z,14.65
2022-09-28T09:19:53.030Z,14.77
2022-09-28T09:25:21.183Z,14.78
2022-09-28T09:30:31.719Z,14.85
2022-09-28T09:35:45.962Z,14.95
2022-09-28T09:41:26.887Z,15.28
2022-09-28T09:47:03.626Z,15.10
2022-09-28T09:52:28.391Z,15.06
2022-09-28T09:57:42.918Z,15.23
2022-09-28T10:03:00.272Z,15.24
2022-09-28T10:08:18.980Z,15.17
2022-09-28T10:13:24.722Z,15.06
2022-09-28T10:18:31.807Z,15.39
2022-09-28T10:24:04.516Z,15.75
2022-09-28T10:29:25.245Z,15.90
2022-09-28T10:34:31.666Z,15.88
2022-09-28T10:39:48.361Z,15.69
2022-09-28T10:44:57.327Z,15.55
2022-09-28T10:50:26.260Z,15.38
2022-09-28T10:55:36.414Z,15.10
2022-09-28T11:00:44.586Z,14.93
2022-09-28T11:06:02.878Z,14.95
2022-09-28T11:11:13.994Z,14.73
2022-09-28T11:16:26.559Z,14.97
2022-09-28T11:21:35.088Z,15.06
2022-09-28T11:26:45.077Z,15.15
2022-09-28T11:32:04.223Z,15.22
2022-09-28T11:37:27.889Z,15.25
2022-09-28T11:42:52.425Z,15.34
2022-09-28T11:48:04.258Z,15.40
2022-09-28T11:53:34.407Z,15.45
2022-09-28T11:58:43.327Z,15.41
2022-09-28T12:03:54.117Z,15.43
2022-09-28T12:09:04.247Z,15.44
2022-09-28T12:14:26.364Z,15.46
2022-09-28T12:19:43.941Z,15.46
2022-09-28T12:24:52.635Z,15.47
2022-09-28T12:30:22.334Z,15.42
2022-09-28T12:35:30.780Z,15.36
2022-09-28T12:40:54.261Z,15.30
2022-09-28T12:46:18.015Z,15.24
2022-09-28T12:51:45.137Z,15.22
2022-09-28T12:56:53.863Z,15.44
2022-09-28T13:02:15.010Z,15.40
2022-09-28T13:07:29.272Z,15.43
2022-09-28T13:12:53.167Z,15.49
2022-09-28T13:18:01.860Z,15.48
2022-09-28T13:23:25.131Z,15.43
2022-09-28T13:28:32.932Z,15.43
2022-09-28T13:33:41.873Z,15.53
2022-09-28T13:38:49.788Z,15.68
2022-09-28T13:44:00.928Z,15.73
2022-09-28T13:49:18.531Z,15.73
2022-09-28T13:54:58.866Z,15.80
2022-09-28T14:00:19.360Z,15.85
2022-09-28T14:05:44.265Z,15.84
2022-09-28T14:10:55.748Z,15.78
2022-09-28T14:16:20.707Z,15.67
2022-09-28T14:21:47.380Z,15.63
2022-09-28T14:27:07.813Z,15.67
2022-09-28T14:32:16.309Z,15.63
2022-09-28T14:37:55.143Z,15.54
2022-09-28T14:43:37.191Z,15.51
2022-09-28T14:49:04.093Z,15.74
2022-09-28T14:54:12.507Z,15.75
2022-09-28T14:59:39.176Z,15.80
2022-09-28T15:05:03.054Z,15.84
2022-09-28T15:10:11.713Z,15.72
2022-09-28T15:15:29.559Z,15.77
2022-09-28T15:20:41.700Z,15.95
2022-09-28T15:25:50.157Z,16.14
2022-09-28T15:31:03.710Z,16.48
2022-09-28T15:36:11.027Z,16.52
2022-09-28T15:41:16.501Z,16.27
2022-09-28T15:46:22.609Z,16.15
2022-09-28T15:51:29.525Z,15.93
2022-09-28T15:56:37.971Z,15.84
2022-09-28T16:01:52.407Z,15.72
2022-09-28T16:07:10.346Z,15.55
2022-09-28T16:12:16.343Z,15.38
2022-09-28T16:17:29.300Z,15.20
2022-09-28T16:22:34.866Z,14.99
2022-09-28T16:27:43.466Z,14.76
2022-09-28T16:33:03.746Z,14.52
2022-09-28T16:38:17.112Z,14.35
2022-09-28T16:43:31.062Z,14.10
2022-09-28T16:48:39.672Z,13.92
2022-09-28T16:54:04.050Z,13.76
2022-09-28T16:59:13.815Z,13.57
2022-09-28T17:04:18.996Z,13.40
2022-09-28T17:09:24.826Z,13.30
2022-09-28T17:14:31.873Z,13.20
2022-09-28T17:19:37.330Z,13.15
2022-09-28T17:24:42.713Z,13.03
2022-09-28T17:29:48.108Z,13.00
2022-09-28T17:35:06.599Z,13.00
2022-09-28T17:40:01.321Z,12.92
2022-09-28T17:45:07.636Z,12.83
2022-09-28T17:50:25.020Z,12.76
2022-09-28T17:55:33.214Z,12.67
2022-09-28T18:00:38.870Z,12.53
2022-09-28T18:05:46.673Z,12.42
2022-09-28T18:10:52.401Z,12.38
2022-09-28T18:15:58.355Z,12.35
2022-09-28T18:21:03.891Z,12.29
2022-09-28T18:26:14.015Z,12.20
2022-09-28T18:31:19.596Z,12.09
2022-09-28T18:36:30.935Z,12.03
2022-09-28T18:41:36.466Z,11.98
2022-09-28T18:46:43.820Z,11.99
2022-09-28T18:51:49.966Z,12.02
2022-09-28T18:56:58.448Z,12.08
2022-09-28T19:02:04.889Z,12.05
2022-09-28T19:07:10.794Z,12.04
2022-09-28T19:12:16.534Z,12.07
2022-09-28T19:17:21.913Z,12.06
2022-09-28T19:22:27.389Z,12.01
2022-09-28T19:27:33.045Z,11.94
2022-09-28T19:32:39.141Z,11.87
2022-09-28T19:37:46.182Z,11.72
2022-09-28T19:42:51.578Z,11.69
2022-09-28T19:47:59.492Z,11.65
2022-09-28T19:53:07.477Z,11.61
2022-09-28T19:58:12.922Z,11.55
2022-09-28T20:03:21.710Z,11.48
2022-09-28T20:08:27.655Z,11.42
2022-09-28T20:13:35.748Z,11.37
2022-09-28T20:18:44.283Z,11.31
2022-09-28T20:23:50.354Z,11.29
2022-09-28T20:28:55.871Z,11.28
2022-09-28T20:34:03.329Z,11.22
2022-09-28T20:39:09.563Z,11.16
2022-09-28T20:44:15.029Z,11.10
2022-09-28T20:49:20.738Z,11.05
2022-09-28T20:54:26.249Z,11.01
2022-09-28T20:59:31.658Z,10.98
2022-09-28T21:04:37.061Z,10.94
2022-09-28T21:09:42.520Z,10.90
2022-09-28T21:14:47.916Z,10.88
2022-09-28T21:19:53.346Z,10.86
2022-09-28T21:24:58.732Z,10.85
2022-09-28T21:30:04.328Z,10.76
2022-09-28T21:35:10.416Z,10.70
2022-09-28T21:40:15.882Z,10.68
2022-09-28T21:45:21.758Z,10.64
2022-09-28T21:50:28.066Z,10.65
2022-09-28T21:55:33.463Z,10.62
2022-09-28T22:00:40.554Z,10.61
2022-09-28T22:05:45.969Z,10.63
2022-09-28T22:11:11.785Z,10.62
2022-09-28T22:16:20.034Z,10.62
2022-09-28T22:21:32.074Z,10.61
2022-09-28T22:26:39.709Z,10.57
2022-09-28T22:31:45.107Z,10.52
2022-09-28T22:36:50.488Z,10.49
2022-09-28T22:41:55.879Z,10.48
2022-09-28T22:47:01.268Z,10.47
2022-09-28T22:52:06.995Z,10.51
2022-09-28T22:57:12.465Z,10.54
2022-09-28T23:02:17.849Z,10.57
2022-09-28T23:07:23.564Z,10.50
2022-09-28T23:12:30.614Z,10.45
2022-09-28T23:17:36.572Z,10.41
2022-09-28T23:22:43.592Z,10.38
2022-09-28T23:27:50.573Z,10.34
2022-09-28T23:32:55.961Z,10.31
2022-09-28T23:38:01.723Z,10.31
2022-09-28T23:43:07.588Z,10.33
2022-09-28T23:48:15.167Z,10.32
2022-09-28T23:53:20.774Z,10.29
2022-09-28T23:58:26.491Z,10.23
